sensor_id;sensor_type;location;lat;lon;timestamp;pressure;altitude;pressure_sealevel;temperature;humidity
13209;BME280;6669;42.678;23.332;2023-07-31T00:00:59;94216.81;;;20.62;100.00
13209;BME280;6669;42.678;23.332;2023-07-31T00:03:27;94225.78;;;20.61;100.00
13209;BME280;6669;42.678;23.332;2023-07-31T00:05:55;94216.56;;;20.64;100.00
13209;BME280;6669;42.678;23.332;2023-07-31T00:08:23;94210.09;;;20.71;100.00
13209;BME280;6669;42.678;23.332;2023-07-31T00:10:51;94224.16;;;20.77;100.00
13209;BME280;6669;42.678;23.332;2023-07-31T00:13:20;94216.31;;;20.65;100.00
13209;BME280;6669;42.678;23.332;2023-07-31T00:15:48;94233.25;;;20.69;100.00
13209;BME280;6669;42.678;23.332;2023-07-31T00:18:17;94231.63;;;20.63;100.00
13209;BME280;6669;42.678;23.332;2023-07-31T00:20:45;94221.06;;;20.63;100.00
13209;BME280;6669;42.678;23.332;2023-07-31T00:23:13;94211.94;;;20.54;100.00
13209;BME280;6669;42.678;23.332;2023-07-31T00:25:41;94221.22;;;20.56;100.00
13209;BME280;6669;42.678;23.332;2023-07-31T00:28:10;94216.63;;;20.30;100.00
13209;BME280;6669;42.678;23.332;2023-07-31T00:30:38;94204.19;;;20.08;100.00
13209;BME280;6669;42.678;23.332;2023-07-31T00:33:06;94203.22;;;20.14;100.00
13209;BME280;6669;42.678;23.332;2023-07-31T00:35:35;94195.38;;;20.19;100.00
13209;BME280;6669;42.678;23.332;2023-07-31T00:38:03;94183.66;;;20.10;100.00
13209;BME280;6669;42.678;23.332;2023-07-31T00:40:34;94183.66;;;20.10;100.00
13209;BME280;6669;42.678;23.332;2023-07-31T00:43:03;94178.47;;;19.98;100.00
13209;BME280;6669;42.678;23.332;2023-07-31T00:45:32;94191.56;;;19.93;100.00
13209;BME280;6669;42.678;23.332;2023-07-31T00:48:01;94180.53;;;19.79;100.00
13209;BME280;6669;42.678;23.332;2023-07-31T00:50:30;94198.66;;;19.75;100.00
13209;BME280;6669;42.678;23.332;2023-07-31T00:52:59;94196.09;;;19.64;100.00
13209;BME280;6669;42.678;23.332;2023-07-31T00:55:27;94194.03;;;19.66;100.00
13209;BME280;6669;42.678;23.332;2023-07-31T00:57:56;94185.47;;;19.58;100.00
13209;BME280;6669;42.678;23.332;2023-07-31T01:00:24;94183.16;;;19.62;100.00
13209;BME280;6669;42.678;23.332;2023-07-31T01:02:52;94167.66;;;19.66;100.00
13209;BME280;6669;42.678;23.332;2023-07-31T01:05:47;94174.53;;;19.67;100.00
13209;BME280;6669;42.678;23.332;2023-07-31T01:08:25;94169.19;;;19.62;100.00
13209;BME280;6669;42.678;23.332;2023-07-31T01:10:58;94173.41;;;19.63;100.00
13209;BME280;6669;42.678;23.332;2023-07-31T01:13:28;94175.06;;;19.69;100.00
13209;BME280;6669;42.678;23.332;2023-07-31T01:15:57;94183.38;;;19.60;100.00
13209;BME280;6669;42.678;23.332;2023-07-31T01:18:25;94171.16;;;19.54;100.00
13209;BME280;6669;42.678;23.332;2023-07-31T01:21:00;94169.97;;;19.45;100.00
13209;BME280;6669;42.678;23.332;2023-07-31T01:24:00;94176.50;;;19.42;100.00
13209;BME280;6669;42.678;23.332;2023-07-31T01:26:34;94153.00;;;19.24;100.00
13209;BME280;6669;42.678;23.332;2023-07-31T01:29:09;94174.59;;;19.38;100.00
13209;BME280;6669;42.678;23.332;2023-07-31T01:31:39;94173.78;;;19.37;100.00
13209;BME280;6669;42.678;23.332;2023-07-31T01:34:08;94159.63;;;19.26;100.00
13209;BME280;6669;42.678;23.332;2023-07-31T01:36:37;94166.34;;;19.34;100.00
13209;BME280;6669;42.678;23.332;2023-07-31T01:39:06;94170.81;;;19.34;100.00
13209;BME280;6669;42.678;23.332;2023-07-31T01:41:36;94171.84;;;19.33;100.00
13209;BME280;6669;42.678;23.332;2023-07-31T01:44:04;94164.75;;;19.33;100.00
13209;BME280;6669;42.678;23.332;2023-07-31T01:46:32;94156.75;;;19.28;100.00
13209;BME280;6669;42.678;23.332;2023-07-31T01:49:01;94173.63;;;19.27;100.00
13209;BME280;6669;42.678;23.332;2023-07-31T01:51:29;94162.75;;;19.23;100.00
13209;BME280;6669;42.678;23.332;2023-07-31T01:54:00;94157.94;;;19.20;100.00
13209;BME280;6669;42.678;23.332;2023-07-31T01:56:29;94164.63;;;19.11;100.00
13209;BME280;6669;42.678;23.332;2023-07-31T01:58:58;94172.06;;;19.14;100.00
13209;BME280;6669;42.678;23.332;2023-07-31T02:01:26;94182.28;;;19.10;100.00
13209;BME280;6669;42.678;23.332;2023-07-31T02:03:54;94181.22;;;19.11;100.00
13209;BME280;6669;42.678;23.332;2023-07-31T02:06:22;94172.44;;;19.06;100.00
13209;BME280;6669;42.678;23.332;2023-07-31T02:08:50;94169.31;;;19.09;100.00
13209;BME280;6669;42.678;23.332;2023-07-31T02:11:18;94170.84;;;19.05;100.00
13209;BME280;6669;42.678;23.332;2023-07-31T02:13:46;94188.59;;;19.09;100.00
13209;BME280;6669;42.678;23.332;2023-07-31T02:16:15;94182.75;;;19.07;100.00
13209;BME280;6669;42.678;23.332;2023-07-31T02:18:43;94181.22;;;19.11;100.00
13209;BME280;6669;42.678;23.332;2023-07-31T02:21:11;94177.81;;;19.11;100.00
13209;BME280;6669;42.678;23.332;2023-07-31T02:23:39;94181.81;;;19.14;100.00
13209;BME280;6669;42.678;23.332;2023-07-31T02:26:07;94184.78;;;19.17;100.00
13209;BME280;6669;42.678;23.332;2023-07-31T02:28:35;94175.34;;;19.21;100.00
13209;BME280;6669;42.678;23.332;2023-07-31T02:31:04;94178.56;;;19.23;100.00
13209;BME280;6669;42.678;23.332;2023-07-31T02:33:33;94170.09;;;19.21;100.00
13209;BME280;6669;42.678;23.332;2023-07-31T02:36:01;94180.78;;;19.32;100.00
13209;BME280;6669;42.678;23.332;2023-07-31T02:38:29;94178.81;;;19.39;100.00
13209;BME280;6669;42.678;23.332;2023-07-31T02:40:57;94179.94;;;19.43;100.00
13209;BME280;6669;42.678;23.332;2023-07-31T02:43:25;94180.97;;;19.42;100.00
13209;BME280;6669;42.678;23.332;2023-07-31T02:45:53;94183.16;;;19.45;100.00
13209;BME280;6669;42.678;23.332;2023-07-31T02:48:21;94184.19;;;19.44;100.00
13209;BME280;6669;42.678;23.332;2023-07-31T02:50:51;94180.97;;;19.42;100.00
13209;BME280;6669;42.678;23.332;2023-07-31T02:53:19;94179.47;;;19.46;100.00
13209;BME280;6669;42.678;23.332;2023-07-31T02:55:47;94191.22;;;19.55;100.00
13209;BME280;6669;42.678;23.332;2023-07-31T02:58:14;94196.81;;;19.59;100.00
13209;BME280;6669;42.678;23.332;2023-07-31T03:00:42;94202.19;;;19.64;100.00
13209;BME280;6669;42.678;23.332;2023-07-31T03:03:10;94205.59;;;19.65;100.00
13209;BME280;6669;42.678;23.332;2023-07-31T03:05:39;94205.34;;;19.66;100.00
13209;BME280;6669;42.678;23.332;2023-07-31T03:08:08;94206.16;;;19.67;100.00
13209;BME280;6669;42.678;23.332;2023-07-31T03:10:36;94209.13;;;19.70;100.00
13209;BME280;6669;42.678;23.332;2023-07-31T03:13:04;94213.13;;;19.73;100.00
13209;BME280;6669;42.678;23.332;2023-07-31T03:15:32;94208.19;;;19.76;100.00
13209;BME280;6669;42.678;23.332;2023-07-31T03:18:00;94207.56;;;19.86;100.00
13209;BME280;6669;42.678;23.332;2023-07-31T03:20:28;94210.09;;;19.81;100.00
13209;BME280;6669;42.678;23.332;2023-07-31T03:22:56;94212.13;;;19.91;100.00
13209;BME280;6669;42.678;23.332;2023-07-31T03:25:26;94201.81;;;19.89;100.00
13209;BME280;6669;42.678;23.332;2023-07-31T03:27:54;94210.56;;;19.78;100.00
13209;BME280;6669;42.678;23.332;2023-07-31T03:30:22;94206.34;;;19.77;100.00
13209;BME280;6669;42.678;23.332;2023-07-31T03:32:50;94216.16;;;19.82;100.00
13209;BME280;6669;42.678;23.332;2023-07-31T03:35:18;94213.06;;;19.85;100.00
13209;BME280;6669;42.678;23.332;2023-07-31T03:37:46;94220.19;;;19.84;100.00
13209;BME280;6669;42.678;23.332;2023-07-31T03:40:14;94219.63;;;19.82;100.00
13209;BME280;6669;42.678;23.332;2023-07-31T03:42:43;94224.31;;;19.80;100.00
13209;BME280;6669;42.678;23.332;2023-07-31T03:45:11;94226.94;;;19.80;100.00
13209;BME280;6669;42.678;23.332;2023-07-31T03:47:39;94236.44;;;19.81;100.00
13209;BME280;6669;42.678;23.332;2023-07-31T03:50:08;94217.34;;;19.74;100.00
13209;BME280;6669;42.678;23.332;2023-07-31T03:52:36;94231.66;;;19.78;100.00
13209;BME280;6669;42.678;23.332;2023-07-31T03:55:04;94218.72;;;19.76;100.00
13209;BME280;6669;42.678;23.332;2023-07-31T03:57:32;94234.75;;;19.87;100.00
13209;BME280;6669;42.678;23.332;2023-07-31T04:00:02;94236.03;;;19.84;100.00
13209;BME280;6669;42.678;23.332;2023-07-31T04:02:31;94235.34;;;19.77;100.00
13209;BME280;6669;42.678;23.332;2023-07-31T04:04:59;94232.38;;;19.73;100.00
13209;BME280;6669;42.678;23.332;2023-07-31T04:07:27;94245.22;;;19.70;100.00
13209;BME280;6669;42.678;23.332;2023-07-31T04:09:57;94233.25;;;19.62;100.00
13209;BME280;6669;42.678;23.332;2023-07-31T04:12:25;94234.06;;;19.63;100.00
13209;BME280;6669;42.678;23.332;2023-07-31T04:14:53;94235.19;;;19.67;100.00
13209;BME280;6669;42.678;23.332;2023-07-31T04:17:23;94237.56;;;19.68;100.00
13209;BME280;6669;42.678;23.332;2023-07-31T04:19:51;94237.16;;;19.59;100.00
13209;BME280;6669;42.678;23.332;2023-07-31T04:22:19;94244.69;;;19.68;100.00
13209;BME280;6669;42.678;23.332;2023-07-31T04:24:47;94244.69;;;19.68;100.00
13209;BME280;6669;42.678;23.332;2023-07-31T04:27:15;94243.16;;;19.72;100.00
13209;BME280;6669;42.678;23.332;2023-07-31T04:29:44;94244.91;;;19.66;100.00
13209;BME280;6669;42.678;23.332;2023-07-31T04:32:13;94238.28;;;19.64;100.00
13209;BME280;6669;42.678;23.332;2023-07-31T04:34:44;94256.69;;;19.75;100.00
13209;BME280;6669;42.678;23.332;2023-07-31T04:37:12;94253.22;;;19.75;100.00
13209;BME280;6669;42.678;23.332;2023-07-31T04:39:40;94258.94;;;19.84;100.00
13209;BME280;6669;42.678;23.332;2023-07-31T04:42:09;94240.47;;;19.84;100.00
13209;BME280;6669;42.678;23.332;2023-07-31T04:44:37;94247.69;;;19.88;100.00
13209;BME280;6669;42.678;23.332;2023-07-31T04:47:05;94251.03;;;19.84;100.00
13209;BME280;6669;42.678;23.332;2023-07-31T04:49:33;94252.28;;;19.81;100.00
13209;BME280;6669;42.678;23.332;2023-07-31T04:52:03;94241.28;;;19.84;100.00
13209;BME280;6669;42.678;23.332;2023-07-31T04:54:31;94235.38;;;19.94;100.00
13209;BME280;6669;42.678;23.332;2023-07-31T04:56:59;94250.06;;;20.07;100.00
13209;BME280;6669;42.678;23.332;2023-07-31T04:59:27;94237.19;;;20.11;100.00
13209;BME280;6669;42.678;23.332;2023-07-31T05:01:56;94251.03;;;20.18;100.00
13209;BME280;6669;42.678;23.332;2023-07-31T05:04:24;94260.38;;;20.25;100.00
13209;BME280;6669;42.678;23.332;2023-07-31T05:06:52;94247.91;;;20.38;100.00
13209;BME280;6669;42.678;23.332;2023-07-31T05:09:21;94243.00;;;20.47;100.00
13209;BME280;6669;42.678;23.332;2023-07-31T05:11:49;94250.88;;;20.41;100.00
13209;BME280;6669;42.678;23.332;2023-07-31T05:14:17;94242.66;;;20.60;100.00
13209;BME280;6669;42.678;23.332;2023-07-31T05:16:46;94246.47;;;20.69;100.00
13209;BME280;6669;42.678;23.332;2023-07-31T05:19:14;94241.66;;;20.83;100.00
13209;BME280;6669;42.678;23.332;2023-07-31T05:21:43;94248.97;;;20.76;100.00
13209;BME280;6669;42.678;23.332;2023-07-31T05:24:11;94234.88;;;20.70;100.00
13209;BME280;6669;42.678;23.332;2023-07-31T05:26:41;94248.00;;;20.65;100.00
13209;BME280;6669;42.678;23.332;2023-07-31T05:29:09;94246.47;;;20.69;100.00
13209;BME280;6669;42.678;23.332;2023-07-31T05:31:37;94242.94;;;20.81;100.00
13209;BME280;6669;42.678;23.332;2023-07-31T05:34:05;94239.25;;;20.82;100.00
13209;BME280;6669;42.678;23.332;2023-07-31T05:36:33;94241.69;;;20.66;100.00
13209;BME280;6669;42.678;23.332;2023-07-31T05:39:02;94237.59;;;20.76;100.00
13209;BME280;6669;42.678;23.332;2023-07-31T05:41:34;94231.59;;;20.80;100.00
13209;BME280;6669;42.678;23.332;2023-07-31T05:44:04;94232.22;;;20.87;100.00
13209;BME280;6669;42.678;23.332;2023-07-31T05:46:33;94235.50;;;21.00;100.00
13209;BME280;6669;42.678;23.332;2023-07-31T05:49:01;94236.31;;;21.00;100.00
13209;BME280;6669;42.678;23.332;2023-07-31T05:51:29;94242.41;;;20.79;100.00
13209;BME280;6669;42.678;23.332;2023-07-31T05:53:57;94227.59;;;20.78;100.00
13209;BME280;6669;42.678;23.332;2023-07-31T05:56:25;94232.69;;;20.84;100.00
13209;BME280;6669;42.678;23.332;2023-07-31T05:58:53;94225.19;;;20.76;100.00
13209;BME280;6669;42.678;23.332;2023-07-31T06:01:23;94244.72;;;20.75;100.00
13209;BME280;6669;42.678;23.332;2023-07-31T06:03:51;94254.56;;;20.80;100.00
13209;BME280;6669;42.678;23.332;2023-07-31T06:06:19;94238.47;;;20.64;100.00
13209;BME280;6669;42.678;23.332;2023-07-31T06:08:47;94254.38;;;20.47;100.00
13209;BME280;6669;42.678;23.332;2023-07-31T06:11:16;94262.13;;;20.71;100.00
13209;BME280;6669;42.678;23.332;2023-07-31T06:13:44;94272.06;;;20.86;100.00
13209;BME280;6669;42.678;23.332;2023-07-31T06:16:14;94272.88;;;20.86;100.00
13209;BME280;6669;42.678;23.332;2023-07-31T06:18:45;94271.22;;;21.02;100.00
13209;BME280;6669;42.678;23.332;2023-07-31T06:21:13;94248.53;;;21.29;100.00
13209;BME280;6669;42.678;23.332;2023-07-31T06:23:41;94262.00;;;21.54;100.00
13209;BME280;6669;42.678;23.332;2023-07-31T06:26:09;94244.34;;;21.55;100.00
13209;BME280;6669;42.678;23.332;2023-07-31T06:28:37;94261.47;;;21.52;100.00
13209;BME280;6669;42.678;23.332;2023-07-31T06:31:05;94254.78;;;21.45;100.00
13209;BME280;6669;42.678;23.332;2023-07-31T06:33:34;94256.00;;;21.59;100.00
13209;BME280;6669;42.678;23.332;2023-07-31T06:36:04;94265.78;;;21.59;100.00
13209;BME280;6669;42.678;23.332;2023-07-31T06:38:32;94259.72;;;21.36;100.00
13209;BME280;6669;42.678;23.332;2023-07-31T06:41:00;94267.03;;;21.29;100.00
13209;BME280;6669;42.678;23.332;2023-07-31T06:43:28;94237.84;;;21.18;100.00
13209;BME280;6669;42.678;23.332;2023-07-31T06:45:56;94253.13;;;21.38;100.00
13209;BME280;6669;42.678;23.332;2023-07-31T06:48:24;94254.47;;;21.41;100.00
13209;BME280;6669;42.678;23.332;2023-07-31T06:50:52;94258.22;;;21.45;100.00
13209;BME280;6669;42.678;23.332;2023-07-31T06:53:21;94271.00;;;21.53;100.00
13209;BME280;6669;42.678;23.332;2023-07-31T06:55:49;94265.09;;;21.46;100.00
13209;BME280;6669;42.678;23.332;2023-07-31T06:58:18;94271.47;;;21.23;100.00
13209;BME280;6669;42.678;23.332;2023-07-31T07:00:46;94268.06;;;21.28;100.00
13209;BME280;6669;42.678;23.332;2023-07-31T07:03:17;94257.66;;;21.43;100.00
13209;BME280;6669;42.678;23.332;2023-07-31T07:05:45;94270.63;;;21.67;100.00
13209;BME280;6669;42.678;23.332;2023-07-31T07:08:14;94236.56;;;21.76;100.00
13209;BME280;6669;42.678;23.332;2023-07-31T07:10:44;94249.66;;;21.93;100.00
13209;BME280;6669;42.678;23.332;2023-07-31T07:13:12;94256.03;;;21.92;100.00
13209;BME280;6669;42.678;23.332;2023-07-31T07:15:41;94269.44;;;21.85;100.00
13209;BME280;6669;42.678;23.332;2023-07-31T07:18:09;94266.00;;;21.57;100.00
13209;BME280;6669;42.678;23.332;2023-07-31T07:20:37;94260.91;;;21.50;100.00
13209;BME280;6669;42.678;23.332;2023-07-31T07:23:05;94262.09;;;21.37;100.00
13209;BME280;6669;42.678;23.332;2023-07-31T07:25:37;94274.28;;;21.38;100.00
13209;BME280;6669;42.678;23.332;2023-07-31T07:28:06;94264.69;;;21.32;100.00
13209;BME280;6669;42.678;23.332;2023-07-31T07:30:35;94248.88;;;21.37;100.00
13209;BME280;6669;42.678;23.332;2023-07-31T07:33:03;94250.53;;;21.44;100.00
13209;BME280;6669;42.678;23.332;2023-07-31T07:35:33;94251.84;;;21.68;100.00
13209;BME280;6669;42.678;23.332;2023-07-31T07:38:01;94246.69;;;21.84;100.00
13209;BME280;6669;42.678;23.332;2023-07-31T07:40:29;94253.84;;;21.83;100.00
13209;BME280;6669;42.678;23.332;2023-07-31T07:42:57;94277.66;;;21.83;100.00
13209;BME280;6669;42.678;23.332;2023-07-31T07:45:28;94255.03;;;22.03;100.00
13209;BME280;6669;42.678;23.332;2023-07-31T07:47:56;94258.03;;;22.12;100.00
13209;BME280;6669;42.678;23.332;2023-07-31T07:50:24;94273.69;;;22.13;100.00
13209;BME280;6669;42.678;23.332;2023-07-31T07:52:53;94263.81;;;22.41;100.00
13209;BME280;6669;42.678;23.332;2023-07-31T07:55:21;94257.59;;;22.63;100.00
13209;BME280;6669;42.678;23.332;2023-07-31T07:57:49;94256.38;;;22.76;100.00
13209;BME280;6669;42.678;23.332;2023-07-31T08:00:17;94265.16;;;22.86;100.00
13209;BME280;6669;42.678;23.332;2023-07-31T08:02:47;94291.34;;;22.78;100.00
13209;BME280;6669;42.678;23.332;2023-07-31T08:05:15;94278.00;;;22.62;100.00
13209;BME280;6669;42.678;23.332;2023-07-31T08:07:44;94276.56;;;22.44;100.00
13209;BME280;6669;42.678;23.332;2023-07-31T08:10:13;94276.56;;;22.44;100.00
13209;BME280;6669;42.678;23.332;2023-07-31T08:12:41;94256.97;;;22.45;100.00
13209;BME280;6669;42.678;23.332;2023-07-31T08:15:09;94267.94;;;22.59;100.00
13209;BME280;6669;42.678;23.332;2023-07-31T08:17:37;94277.81;;;22.79;100.00
13209;BME280;6669;42.678;23.332;2023-07-31T08:20:08;94267.53;;;22.88;100.00
13209;BME280;6669;42.678;23.332;2023-07-31T08:22:37;94289.03;;;22.92;100.00
13209;BME280;6669;42.678;23.332;2023-07-31T08:25:05;94281.63;;;22.94;100.00
13209;BME280;6669;42.678;23.332;2023-07-31T08:27:34;94272.59;;;22.90;100.00
13209;BME280;6669;42.678;23.332;2023-07-31T08:30:03;94272.66;;;23.05;100.00
13209;BME280;6669;42.678;23.332;2023-07-31T08:32:31;94272.78;;;22.78;100.00
13209;BME280;6669;42.678;23.332;2023-07-31T08:34:59;94265.91;;;22.82;100.00
13209;BME280;6669;42.678;23.332;2023-07-31T08:37:29;94273.44;;;23.00;100.00
13209;BME280;6669;42.678;23.332;2023-07-31T08:39:57;94275.34;;;23.10;100.00
13209;BME280;6669;42.678;23.332;2023-07-31T08:42:25;94270.88;;;23.16;100.00
13209;BME280;6669;42.678;23.332;2023-07-31T08:44:56;94264.28;;;23.34;100.00
13209;BME280;6669;42.678;23.332;2023-07-31T08:47:24;94261.44;;;23.46;100.00
13209;BME280;6669;42.678;23.332;2023-07-31T08:49:52;94265.19;;;23.71;100.00
13209;BME280;6669;42.678;23.332;2023-07-31T08:52:21;94260.63;;;23.56;100.00
13209;BME280;6669;42.678;23.332;2023-07-31T08:54:51;94252.97;;;23.75;100.00
13209;BME280;6669;42.678;23.332;2023-07-31T08:57:19;94255.16;;;23.98;100.00
13209;BME280;6669;42.678;23.332;2023-07-31T08:59:47;94271.91;;;24.09;100.00
13209;BME280;6669;42.678;23.332;2023-07-31T09:02:17;94266.03;;;24.23;100.00
13209;BME280;6669;42.678;23.332;2023-07-31T09:04:46;94272.16;;;24.39;100.00
13209;BME280;6669;42.678;23.332;2023-07-31T09:07:15;94266.56;;;24.45;100.00
13209;BME280;6669;42.678;23.332;2023-07-31T09:09:45;94271.88;;;24.20;100.00
13209;BME280;6669;42.678;23.332;2023-07-31T09:12:15;94273.47;;;24.10;100.00
13209;BME280;6669;42.678;23.332;2023-07-31T09:14:45;94271.09;;;24.09;100.00
13209;BME280;6669;42.678;23.332;2023-07-31T09:17:13;94260.72;;;24.18;100.00
13209;BME280;6669;42.678;23.332;2023-07-31T09:19:44;94271.34;;;24.18;100.00
13209;BME280;6669;42.678;23.332;2023-07-31T09:22:12;94249.28;;;24.38;100.00
13209;BME280;6669;42.678;23.332;2023-07-31T09:24:41;94254.28;;;24.60;100.00
13209;BME280;6669;42.678;23.332;2023-07-31T09:27:09;94245.28;;;24.66;100.00
13209;BME280;6669;42.678;23.332;2023-07-31T09:29:39;94248.38;;;24.99;100.00
13209;BME280;6669;42.678;23.332;2023-07-31T09:32:15;94243.63;;;24.91;100.00
13209;BME280;6669;42.678;23.332;2023-07-31T09:34:44;94235.66;;;24.91;100.00
13209;BME280;6669;42.678;23.332;2023-07-31T09:37:12;94231.94;;;24.81;100.00
13209;BME280;6669;42.678;23.332;2023-07-31T09:39:45;94215.94;;;24.97;100.00
13209;BME280;6669;42.678;23.332;2023-07-31T09:42:14;94220.66;;;25.16;100.00
13209;BME280;6669;42.678;23.332;2023-07-31T09:44:53;94247.84;;;24.97;100.00
13209;BME280;6669;42.678;23.332;2023-07-31T09:47:24;94230.91;;;24.62;100.00
13209;BME280;6669;42.678;23.332;2023-07-31T09:49:53;94231.94;;;24.81;100.00
13209;BME280;6669;42.678;23.332;2023-07-31T09:52:21;94233.25;;;24.89;100.00
13209;BME280;6669;42.678;23.332;2023-07-31T09:54:49;94210.63;;;24.92;100.00
13209;BME280;6669;42.678;23.332;2023-07-31T09:57:19;94224.81;;;25.32;100.00
13209;BME280;6669;42.678;23.332;2023-07-31T09:59:50;94222.34;;;25.51;100.00
13209;BME280;6669;42.678;23.332;2023-07-31T10:02:22;94235.38;;;25.53;100.00
13209;BME280;6669;42.678;23.332;2023-07-31T10:04:50;94223.81;;;25.23;100.00
13209;BME280;6669;42.678;23.332;2023-07-31T10:07:20;94216.06;;;25.37;100.00
13209;BME280;6669;42.678;23.332;2023-07-31T10:09:51;94228.91;;;25.64;100.00
13209;BME280;6669;42.678;23.332;2023-07-31T10:12:22;94226.41;;;25.38;100.00
13209;BME280;6669;42.678;23.332;2023-07-31T10:14:52;94217.13;;;25.30;100.00
13209;BME280;6669;42.678;23.332;2023-07-31T10:17:24;94210.00;;;25.66;100.00
13209;BME280;6669;42.678;23.332;2023-07-31T10:19:53;94228.63;;;26.00;100.00
13209;BME280;6669;42.678;23.332;2023-07-31T10:22:21;94224.69;;;25.58;100.00
13209;BME280;6669;42.678;23.332;2023-07-31T10:24:50;94211.47;;;25.42;100.00
13209;BME280;6669;42.678;23.332;2023-07-31T10:27:20;94219.91;;;25.60;100.00
13209;BME280;6669;42.678;23.332;2023-07-31T10:29:48;94209.88;;;25.41;100.00
13209;BME280;6669;42.678;23.332;2023-07-31T10:32:17;94219.72;;;25.46;100.00
13209;BME280;6669;42.678;23.332;2023-07-31T10:34:48;94201.16;;;25.75;100.00
13209;BME280;6669;42.678;23.332;2023-07-31T10:37:21;94215.50;;;26.14;100.00
13209;BME280;6669;42.678;23.332;2023-07-31T10:40:00;94213.78;;;25.94;100.00
13209;BME280;6669;42.678;23.332;2023-07-31T10:42:33;94204.97;;;25.99;100.00
13209;BME280;6669;42.678;23.332;2023-07-31T10:45:03;94203.19;;;26.23;100.00
13209;BME280;6669;42.678;23.332;2023-07-31T10:47:37;94203.13;;;26.29;100.00
13209;BME280;6669;42.678;23.332;2023-07-31T10:50:15;94210.53;;;26.61;100.00
13209;BME280;6669;42.678;23.332;2023-07-31T10:52:46;94207.38;;;26.83;99.94
13209;BME280;6669;42.678;23.332;2023-07-31T10:55:24;94185.03;;;26.79;95.43
13209;BME280;6669;42.678;23.332;2023-07-31T10:57:52;94178.56;;;27.04;94.77
13209;BME280;6669;42.678;23.332;2023-07-31T11:00:22;94184.66;;;27.29;94.45
13209;BME280;6669;42.678;23.332;2023-07-31T11:03:03;94187.56;;;27.71;93.58
13209;BME280;6669;42.678;23.332;2023-07-31T11:05:46;94186.44;;;28.24;90.99
13209;BME280;6669;42.678;23.332;2023-07-31T11:08:16;94177.56;;;28.29;80.74
13209;BME280;6669;42.678;23.332;2023-07-31T11:10:46;94177.50;;;28.90;79.38
13209;BME280;6669;42.678;23.332;2023-07-31T11:13:14;94186.63;;;28.75;75.11
13209;BME280;6669;42.678;23.332;2023-07-31T11:15:42;94174.63;;;28.86;73.28
13209;BME280;6669;42.678;23.332;2023-07-31T11:18:10;94175.25;;;29.19;73.42
13209;BME280;6669;42.678;23.332;2023-07-31T11:20:38;94167.78;;;28.80;76.38
13209;BME280;6669;42.678;23.332;2023-07-31T11:23:09;94178.03;;;28.17;81.26
13209;BME280;6669;42.678;23.332;2023-07-31T11:25:39;94173.22;;;28.61;77.79
13209;BME280;6669;42.678;23.332;2023-07-31T11:28:10;94161.22;;;29.28;72.61
13209;BME280;6669;42.678;23.332;2023-07-31T11:30:39;94171.88;;;29.42;70.11
13209;BME280;6669;42.678;23.332;2023-07-31T11:33:08;94168.94;;;29.29;71.31
13209;BME280;6669;42.678;23.332;2023-07-31T11:35:42;94163.25;;;29.67;73.51
13209;BME280;6669;42.678;23.332;2023-07-31T11:38:21;94187.59;;;29.07;72.54
13209;BME280;6669;42.678;23.332;2023-07-31T11:40:50;94173.72;;;28.35;74.32
13209;BME280;6669;42.678;23.332;2023-07-31T11:43:19;94172.19;;;28.15;74.59
13209;BME280;6669;42.678;23.332;2023-07-31T11:45:48;94176.84;;;28.09;81.21
13209;BME280;6669;42.678;23.332;2023-07-31T11:48:21;94163.16;;;27.78;86.13
13209;BME280;6669;42.678;23.332;2023-07-31T11:50:51;94162.34;;;27.77;85.83
13209;BME280;6669;42.678;23.332;2023-07-31T11:53:25;94160.31;;;27.88;83.73
13209;BME280;6669;42.678;23.332;2023-07-31T11:55:55;94162.00;;;28.17;80.36
13209;BME280;6669;42.678;23.332;2023-07-31T11:58:23;94177.13;;;28.21;79.39
13209;BME280;6669;42.678;23.332;2023-07-31T12:00:51;94162.53;;;28.47;77.91
13209;BME280;6669;42.678;23.332;2023-07-31T12:03:20;94179.09;;;28.91;74.09
13209;BME280;6669;42.678;23.332;2023-07-31T12:05:49;94172.91;;;29.04;70.31
13209;BME280;6669;42.678;23.332;2023-07-31T12:08:17;94156.88;;;28.90;74.82
13209;BME280;6669;42.678;23.332;2023-07-31T12:10:51;94156.19;;;28.43;79.08
13209;BME280;6669;42.678;23.332;2023-07-31T12:13:21;94165.56;;;27.93;81.09
13209;BME280;6669;42.678;23.332;2023-07-31T12:15:54;94139.84;;;28.30;80.66
13209;BME280;6669;42.678;23.332;2023-07-31T12:18:23;94165.84;;;28.72;79.54
13209;BME280;6669;42.678;23.332;2023-07-31T12:20:55;94149.59;;;28.07;82.97
13209;BME280;6669;42.678;23.332;2023-07-31T12:23:25;94149.16;;;28.00;81.81
13209;BME280;6669;42.678;23.332;2023-07-31T12:26:03;94155.06;;;28.16;85.09
13209;BME280;6669;42.678;23.332;2023-07-31T12:28:35;94142.38;;;28.08;84.64
13209;BME280;6669;42.678;23.332;2023-07-31T12:31:04;94138.19;;;28.01;83.99
13209;BME280;6669;42.678;23.332;2023-07-31T12:33:34;94138.69;;;27.70;84.24
13209;BME280;6669;42.678;23.332;2023-07-31T12:36:03;94157.94;;;27.86;80.66
13209;BME280;6669;42.678;23.332;2023-07-31T12:38:33;94144.22;;;27.93;79.28
13209;BME280;6669;42.678;23.332;2023-07-31T12:41:02;94139.34;;;28.28;78.74
13209;BME280;6669;42.678;23.332;2023-07-31T12:43:33;94140.47;;;28.55;76.99
13209;BME280;6669;42.678;23.332;2023-07-31T12:46:01;94137.16;;;28.16;75.56
13209;BME280;6669;42.678;23.332;2023-07-31T12:48:32;94133.88;;;28.05;76.16
13209;BME280;6669;42.678;23.332;2023-07-31T12:51:01;94122.72;;;27.51;77.66
13209;BME280;6669;42.678;23.332;2023-07-31T12:53:29;94125.22;;;27.23;81.71
13209;BME280;6669;42.678;23.332;2023-07-31T12:55:57;94127.63;;;27.25;84.10
13209;BME280;6669;42.678;23.332;2023-07-31T12:58:27;94121.34;;;27.35;81.85
13209;BME280;6669;42.678;23.332;2023-07-31T13:00:55;94108.94;;;28.10;79.44
13209;BME280;6669;42.678;23.332;2023-07-31T13:03:23;94105.50;;;28.51;77.57